sensor_id;sensor_type;location;lat;lon;timestamp;pressure;altitude;pressure_sealevel;temperature;humidity
58955;BME280;45815;52.334;5.024;2022-08-19T00:00:17;101444.06;;;19.42;100.00
58955;BME280;45815;52.334;5.024;2022-08-19T00:02:43;101429.91;;;19.33;100.00
58955;BME280;45815;52.334;5.024;2022-08-19T00:05:11;101432.63;;;19.32;100.00
58955;BME280;45815;52.334;5.024;2022-08-19T00:07:36;101445.84;;;19.39;100.00
58955;BME280;45815;52.334;5.024;2022-08-19T00:10:05;101439.66;;;19.39;100.00
58955;BME280;45815;52.334;5.024;2022-08-19T00:12:31;101444.06;;;19.38;100.00
58955;BME280;45815;52.334;5.024;2022-08-19T00:14:56;101442.31;;;19.36;100.00
58955;BME280;45815;52.334;5.024;2022-08-19T00:17:22;101433.44;;;19.35;100.00
58955;BME280;45815;52.334;5.024;2022-08-19T00:19:47;101441.47;;;19.34;100.00
58955;BME280;45815;52.334;5.024;2022-08-19T00:22:13;101440.56;;;19.33;100.00
58955;BME280;45815;52.334;5.024;2022-08-19T00:24:39;101442.34;;;19.31;100.00
58955;BME280;45815;52.334;5.024;2022-08-19T00:27:06;101439.72;;;19.30;100.00
58955;BME280;45815;52.334;5.024;2022-08-19T00:29:32;101441.47;;;19.31;100.00
58955;BME280;45815;52.334;5.024;2022-08-19T00:31:58;101437.06;;;19.28;100.00
58955;BME280;45815;52.334;5.024;2022-08-19T00:34:25;101432.66;;;19.26;100.00
58955;BME280;45815;52.334;5.024;2022-08-19T00:36:54;101434.44;;;19.25;100.00
58955;BME280;45815;52.334;5.024;2022-08-19T00:39:20;101429.09;;;19.24;100.00
58955;BME280;45815;52.334;5.024;2022-08-19T00:41:47;101420.25;;;19.23;100.00
58955;BME280;45815;52.334;5.024;2022-08-19T00:44:21;101427.34;;;19.19;100.00
58955;BME280;45815;52.334;5.024;2022-08-19T00:46:49;101430.06;;;19.15;100.00
58955;BME280;45815;52.334;5.024;2022-08-19T00:52:01;101434.56;;;19.05;100.00
58955;BME280;45815;52.334;5.024;2022-08-19T00:54:28;101422.16;;;19.04;100.00
58955;BME280;45815;52.334;5.024;2022-08-19T00:56:54;101422.19;;;19.01;100.00
58955;BME280;45815;52.334;5.024;2022-08-19T00:59:20;101423.06;;;19.00;100.00
58955;BME280;45815;52.334;5.024;2022-08-19T01:01:46;101425.72;;;18.98;100.00
58955;BME280;45815;52.334;5.024;2022-08-19T01:04:12;101429.28;;;18.99;100.00
58955;BME280;45815;52.334;5.024;2022-08-19T01:06:39;101440.81;;;18.98;100.00
58955;BME280;45815;52.334;5.024;2022-08-19T01:09:06;101443.47;;;18.98;100.00
58955;BME280;45815;52.334;5.024;2022-08-19T01:11:34;101447.03;;;18.94;100.00
58955;BME280;45815;52.334;5.024;2022-08-19T01:14:00;101443.53;;;18.92;100.00
58955;BME280;45815;52.334;5.024;2022-08-19T01:16:27;101440.00;;;18.90;100.00
58955;BME280;45815;52.334;5.024;2022-08-19T01:18:53;101447.94;;;18.91;100.00
58955;BME280;45815;52.334;5.024;2022-08-19T01:21:38;101452.44;;;18.82;100.00
58955;BME280;45815;52.334;5.024;2022-08-19T01:24:05;101444.44;;;18.88;100.00
58955;BME280;45815;52.334;5.024;2022-08-19T01:26:31;101451.50;;;18.89;100.00
58955;BME280;45815;52.334;5.024;2022-08-19T01:28:58;101455.94;;;18.90;100.00
58955;BME280;45815;52.334;5.024;2022-08-19T01:31:26;101439.09;;;18.88;100.00
58955;BME280;45815;52.334;5.024;2022-08-19T01:33:53;101444.44;;;18.88;100.00
58955;BME280;45815;52.334;5.024;2022-08-19T01:38:51;101446.22;;;18.81;100.00
58955;BME280;45815;52.334;5.024;2022-08-19T01:41:17;101439.13;;;18.83;100.00
58955;BME280;45815;52.334;5.024;2022-08-19T01:43:43;101444.47;;;18.79;100.00
58955;BME280;45815;52.334;5.024;2022-08-19T01:46:08;101446.22;;;18.80;100.00
58955;BME280;45815;52.334;5.024;2022-08-19T01:48:38;101450.66;;;18.79;100.00
58955;BME280;45815;52.334;5.024;2022-08-19T01:51:05;101450.66;;;18.77;100.00
58955;BME280;45815;52.334;5.024;2022-08-19T01:53:30;101454.25;;;18.76;100.00
58955;BME280;45815;52.334;5.024;2022-08-19T01:55:56;101453.31;;;18.74;100.00
58955;BME280;45815;52.334;5.024;2022-08-19T01:58:24;101461.31;;;18.74;100.00
58955;BME280;45815;52.334;5.024;2022-08-19T02:00:51;101459.53;;;18.73;100.00
58955;BME280;45815;52.334;5.024;2022-08-19T02:03:16;101453.31;;;18.73;100.00
58955;BME280;45815;52.334;5.024;2022-08-19T02:05:43;101444.47;;;18.72;100.00
58955;BME280;45815;52.334;5.024;2022-08-19T02:08:09;101458.66;;;18.71;100.00
58955;BME280;45815;52.334;5.024;2022-08-19T02:10:41;101457.78;;;18.69;100.00
58955;BME280;45815;52.334;5.024;2022-08-19T02:13:07;101466.66;;;18.67;100.00
58955;BME280;45815;52.334;5.024;2022-08-19T02:15:33;101461.34;;;18.65;100.00
58955;BME280;45815;52.334;5.024;2022-08-19T02:17:58;101468.44;;;18.63;100.00
58955;BME280;45815;52.334;5.024;2022-08-19T02:20:24;101472.00;;;18.62;100.00
58955;BME280;45815;52.334;5.024;2022-08-19T02:22:49;101462.25;;;18.63;100.00
58955;BME280;45815;52.334;5.024;2022-08-19T02:25:15;101439.22;;;18.54;100.00
58955;BME280;45815;52.334;5.024;2022-08-19T02:27:42;101454.25;;;18.61;100.00
58955;BME280;45815;52.334;5.024;2022-08-19T02:30:12;101443.66;;;18.60;100.00
58955;BME280;45815;52.334;5.024;2022-08-19T02:32:38;101451.63;;;18.58;100.00
58955;BME280;45815;52.334;5.024;2022-08-19T02:35:04;101447.19;;;18.59;100.00
58955;BME280;45815;52.334;5.024;2022-08-19T02:37:30;101458.72;;;18.56;100.00
58955;BME280;45815;52.334;5.024;2022-08-19T02:40:14;101449.88;;;18.51;100.00
58955;BME280;45815;52.334;5.024;2022-08-19T02:42:40;101443.69;;;18.50;100.00
58955;BME280;45815;52.334;5.024;2022-08-19T02:45:06;101446.34;;;18.49;100.00
58955;BME280;45815;52.334;5.024;2022-08-19T02:47:33;101446.34;;;18.49;100.00
58955;BME280;45815;52.334;5.024;2022-08-19T02:50:01;101451.69;;;18.47;100.00
58955;BME280;45815;52.334;5.024;2022-08-19T02:52:27;101451.69;;;18.46;100.00
58955;BME280;45815;52.334;5.024;2022-08-19T02:54:53;101450.78;;;18.47;100.00
58955;BME280;45815;52.334;5.024;2022-08-19T02:57:18;101425.13;;;18.37;100.00
58955;BME280;45815;52.334;5.024;2022-08-19T02:59:44;101441.03;;;18.44;100.00
58955;BME280;45815;52.334;5.024;2022-08-19T03:02:09;101440.16;;;18.47;100.00
58955;BME280;45815;52.334;5.024;2022-08-19T03:04:35;101441.94;;;18.46;100.00
58955;BME280;45815;52.334;5.024;2022-08-19T03:07:00;101433.94;;;18.45;100.00
58955;BME280;45815;52.334;5.024;2022-08-19T03:09:25;101434.84;;;18.44;100.00
58955;BME280;45815;52.334;5.024;2022-08-19T03:11:51;101435.75;;;18.41;100.00
58955;BME280;45815;52.334;5.024;2022-08-19T03:14:16;101413.66;;;18.31;100.00
58955;BME280;45815;52.334;5.024;2022-08-19T03:16:51;101434.00;;;18.34;100.00
58955;BME280;45815;52.334;5.024;2022-08-19T03:19:18;101428.66;;;18.37;100.00
58955;BME280;45815;52.334;5.024;2022-08-19T03:21:45;101432.22;;;18.34;100.00
58955;BME280;45815;52.334;5.024;2022-08-19T03:24:12;101422.50;;;18.33;100.00
58955;BME280;45815;52.334;5.024;2022-08-19T03:26:41;101407.47;;;18.26;100.00
58955;BME280;45815;52.334;5.024;2022-08-19T03:29:07;101414.53;;;18.32;100.00
58955;BME280;45815;52.334;5.024;2022-08-19T03:31:34;101418.06;;;18.32;100.00
58955;BME280;45815;52.334;5.024;2022-08-19T03:33:59;101413.63;;;18.30;100.00
58955;BME280;45815;52.334;5.024;2022-08-19T03:36:26;101418.97;;;18.31;100.00
58955;BME280;45815;52.334;5.024;2022-08-19T03:38:56;101411.00;;;18.31;100.00
58955;BME280;45815;52.334;5.024;2022-08-19T03:41:24;101412.75;;;18.32;100.00
58955;BME280;45815;52.334;5.024;2022-08-19T03:43:51;101418.06;;;18.32;100.00
58955;BME280;45815;52.334;5.024;2022-08-19T03:46:21;101415.41;;;18.32;100.00
58955;BME280;45815;52.334;5.024;2022-08-19T03:48:48;101418.94;;;18.34;100.00
58955;BME280;45815;52.334;5.024;2022-08-19T03:51:26;101409.22;;;18.26;100.00
58955;BME280;45815;52.334;5.024;2022-08-19T03:53:53;101424.25;;;18.34;100.00
58955;BME280;45815;52.334;5.024;2022-08-19T03:56:20;101426.03;;;18.32;100.00
58955;BME280;45815;52.334;5.024;2022-08-19T03:58:46;101426.91;;;18.33;100.00
58955;BME280;45815;52.334;5.024;2022-08-19T04:01:15;101429.56;;;18.28;100.00
58955;BME280;45815;52.334;5.024;2022-08-19T04:03:41;101426.06;;;18.26;100.00
58955;BME280;45815;52.334;5.024;2022-08-19T04:06:34;101423.44;;;18.17;100.00
58955;BME280;45815;52.334;5.024;2022-08-19T04:09:02;101414.56;;;18.23;100.00
58955;BME280;45815;52.334;5.024;2022-08-19T04:11:33;101412.78;;;18.23;100.00
58955;BME280;45815;52.334;5.024;2022-08-19T04:13:59;101411.88;;;18.21;100.00
58955;BME280;45815;52.334;5.024;2022-08-19T04:16:26;101413.69;;;18.22;100.00
58955;BME280;45815;52.334;5.024;2022-08-19T04:19:00;101426.97;;;18.18;100.00
58955;BME280;45815;52.334;5.024;2022-08-19T04:21:26;101434.94;;;18.19;100.00
58955;BME280;45815;52.334;5.024;2022-08-19T04:23:54;101434.94;;;18.22;100.00
58955;BME280;45815;52.334;5.024;2022-08-19T04:26:22;101434.06;;;18.22;100.00
58955;BME280;45815;52.334;5.024;2022-08-19T04:28:47;101428.72;;;18.19;100.00
58955;BME280;45815;52.334;5.024;2022-08-19T04:31:17;101429.63;;;18.16;100.00
58955;BME280;45815;52.334;5.024;2022-08-19T04:33:42;101431.41;;;18.12;100.00
58955;BME280;45815;52.334;5.024;2022-08-19T04:36:16;101431.41;;;18.05;100.00
58955;BME280;45815;52.334;5.024;2022-08-19T04:38:42;101418.16;;;18.03;100.00
58955;BME280;45815;52.334;5.024;2022-08-19T04:41:07;101425.22;;;18.04;100.00
58955;BME280;45815;52.334;5.024;2022-08-19T04:43:51;101427.00;;;18.04;100.00
58955;BME280;45815;52.334;5.024;2022-08-19T04:46:16;101426.09;;;18.05;100.00
58955;BME280;45815;52.334;5.024;2022-08-19T04:48:42;101417.28;;;18.00;100.00
58955;BME280;45815;52.334;5.024;2022-08-19T04:51:11;101429.66;;;18.07;100.00
58955;BME280;45815;52.334;5.024;2022-08-19T04:53:40;101428.78;;;18.08;100.00
58955;BME280;45815;52.334;5.024;2022-08-19T04:56:11;101441.16;;;18.09;100.00
58955;BME280;45815;52.334;5.024;2022-08-19T04:58:38;101441.16;;;18.09;100.00
58955;BME280;45815;52.334;5.024;2022-08-19T05:01:04;101443.81;;;18.09;100.00
58955;BME280;45815;52.334;5.024;2022-08-19T05:03:29;101450.88;;;18.16;100.00
58955;BME280;45815;52.334;5.024;2022-08-19T05:06:03;101454.44;;;18.15;100.00
58955;BME280;45815;52.334;5.024;2022-08-19T05:08:28;101449.09;;;18.18;100.00
58955;BME280;45815;52.334;5.024;2022-08-19T05:10:55;101459.72;;;18.24;100.00
58955;BME280;45815;52.334;5.024;2022-08-19T05:13:22;101457.06;;;18.23;100.00
58955;BME280;45815;52.334;5.024;2022-08-19T05:15:56;101462.38;;;18.29;100.00
58955;BME280;45815;52.334;5.024;2022-08-19T05:18:22;101467.66;;;18.32;100.00
58955;BME280;45815;52.334;5.024;2022-08-19T05:21:11;101471.22;;;18.28;100.00
58955;BME280;45815;52.334;5.024;2022-08-19T05:23:55;101469.47;;;18.25;100.00
58955;BME280;45815;52.334;5.024;2022-08-19T05:26:22;101473.88;;;18.29;100.00
58955;BME280;45815;52.334;5.024;2022-08-19T05:28:48;101466.78;;;18.34;100.00
58955;BME280;45815;52.334;5.024;2022-08-19T05:31:13;101467.66;;;18.38;100.00
58955;BME280;45815;52.334;5.024;2022-08-19T05:33:39;101460.56;;;18.39;100.00
58955;BME280;45815;52.334;5.024;2022-08-19T05:36:05;101459.66;;;18.46;100.00
58955;BME280;45815;52.334;5.024;2022-08-19T05:38:33;101456.09;;;18.53;100.00
58955;BME280;45815;52.334;5.024;2022-08-19T05:40:58;101447.19;;;18.60;100.00
58955;BME280;45815;52.334;5.024;2022-08-19T05:43:24;101456.94;;;18.64;100.00
58955;BME280;45815;52.334;5.024;2022-08-19T05:45:50;101449.84;;;18.66;100.00
58955;BME280;45815;52.334;5.024;2022-08-19T05:48:16;101441.88;;;18.62;100.00
58955;BME280;45815;52.334;5.024;2022-08-19T05:50:42;101457.78;;;18.75;100.00
58955;BME280;45815;52.334;5.024;2022-08-19T05:53:09;101447.16;;;18.71;100.00
58955;BME280;45815;52.334;5.024;2022-08-19T05:55:35;101455.13;;;18.79;100.00
58955;BME280;45815;52.334;5.024;2022-08-19T05:58:03;101458.66;;;18.76;100.00
58955;BME280;45815;52.334;5.024;2022-08-19T06:00:29;101457.78;;;18.75;100.00
58955;BME280;45815;52.334;5.024;2022-08-19T06:02:56;101441.81;;;18.72;100.00
58955;BME280;45815;52.334;5.024;2022-08-19T06:05:24;101452.47;;;18.79;100.00
58955;BME280;45815;52.334;5.024;2022-08-19T06:07:50;101454.22;;;18.83;100.00
58955;BME280;45815;52.334;5.024;2022-08-19T06:10:15;101451.53;;;18.84;100.00
58955;BME280;45815;52.334;5.024;2022-08-19T06:12:40;101447.06;;;18.91;100.00
58955;BME280;45815;52.334;5.024;2022-08-19T06:15:12;101445.25;;;18.96;100.00
58955;BME280;45815;52.334;5.024;2022-08-19T06:17:38;101446.13;;;19.01;100.00
58955;BME280;45815;52.334;5.024;2022-08-19T06:20:05;101448.72;;;19.06;100.00
58955;BME280;45815;52.334;5.024;2022-08-19T06:22:31;101447.84;;;19.05;100.00
58955;BME280;45815;52.334;5.024;2022-08-19T06:24:56;101448.75;;;19.09;100.00
58955;BME280;45815;52.334;5.024;2022-08-19T06:27:22;101451.34;;;19.15;100.00
58955;BME280;45815;52.334;5.024;2022-08-19T06:29:48;101445.13;;;19.17;100.00
58955;BME280;45815;52.334;5.024;2022-08-19T06:32:15;101440.69;;;19.16;100.00
58955;BME280;45815;52.334;5.024;2022-08-19T06:34:42;101446.88;;;19.22;100.00
58955;BME280;45815;52.334;5.024;2022-08-19T06:37:08;101438.84;;;19.28;100.00
58955;BME280;45815;52.334;5.024;2022-08-19T06:39:37;101443.25;;;19.29;100.00
58955;BME280;45815;52.334;5.024;2022-08-19T06:42:04;101438.81;;;19.31;100.00
58955;BME280;45815;52.334;5.024;2022-08-19T06:44:34;101445.91;;;19.32;100.00
58955;BME280;45815;52.334;5.024;2022-08-19T06:47:03;101449.47;;;19.34;100.00
58955;BME280;45815;52.334;5.024;2022-08-19T06:49:29;101454.75;;;19.37;100.00
58955;BME280;45815;52.334;5.024;2022-08-19T06:51:56;101450.31;;;19.39;100.00
58955;BME280;45815;52.334;5.024;2022-08-19T06:54:22;101458.28;;;19.37;100.00
58955;BME280;45815;52.334;5.024;2022-08-19T06:56:48;101461.81;;;19.38;100.00
58955;BME280;45815;52.334;5.024;2022-08-19T06:59:16;101456.47;;;19.43;100.00
58955;BME280;45815;52.334;5.024;2022-08-19T07:01:50;101453.78;;;19.47;100.00
58955;BME280;45815;52.334;5.024;2022-08-19T07:04:21;101465.25;;;19.54;100.00
58955;BME280;45815;52.334;5.024;2022-08-19T07:06:48;101466.09;;;19.60;100.00
58955;BME280;45815;52.334;5.024;2022-08-19T07:09:16;101468.72;;;19.70;100.00
58955;BME280;45815;52.334;5.024;2022-08-19T07:11:47;101462.47;;;19.71;100.00
58955;BME280;45815;52.334;5.024;2022-08-19T07:14:13;101466.84;;;19.79;100.00
58955;BME280;45815;52.334;5.024;2022-08-19T07:16:39;101460.56;;;19.85;100.00
58955;BME280;45815;52.334;5.024;2022-08-19T07:19:05;101460.59;;;19.84;100.00
58955;BME280;45815;52.334;5.024;2022-08-19T07:21:30;101470.31;;;19.91;100.00
58955;BME280;45815;52.334;5.024;2022-08-19T07:23:56;101464.00;;;19.99;100.00
58955;BME280;45815;52.334;5.024;2022-08-19T07:26:27;101463.94;;;20.06;100.00
58955;BME280;45815;52.334;5.024;2022-08-19T07:28:54;101470.91;;;20.17;100.00
58955;BME280;45815;52.334;5.024;2022-08-19T07:31:22;101468.16;;;20.28;100.00
58955;BME280;45815;52.334;5.024;2022-08-19T07:33:49;101461.84;;;20.35;100.00
58955;BME280;45815;52.334;5.024;2022-08-19T07:36:18;101448.41;;;20.44;100.00
58955;BME280;45815;52.334;5.024;2022-08-19T07:38:46;101457.28;;;20.43;100.00
58955;BME280;45815;52.334;5.024;2022-08-19T07:41:16;101458.09;;;20.52;100.00
58955;BME280;45815;52.334;5.024;2022-08-19T07:43:42;101456.28;;;20.57;100.00
58955;BME280;45815;52.334;5.024;2022-08-19T07:46:09;101459.75;;;20.65;100.00
58955;BME280;45815;52.334;5.024;2022-08-19T07:48:35;101459.66;;;20.71;100.00
58955;BME280;45815;52.334;5.024;2022-08-19T07:51:03;101450.72;;;20.75;100.00
58955;BME280;45815;52.334;5.024;2022-08-19T07:53:31;101461.16;;;20.91;100.00
58955;BME280;45815;52.334;5.024;2022-08-19T07:55:58;101457.47;;;21.01;100.00
58955;BME280;45815;52.334;5.024;2022-08-19T07:58:31;101440.59;;;20.99;100.00
58955;BME280;45815;52.334;5.024;2022-08-19T08:00:57;101453.72;;;21.14;100.00
58955;BME280;45815;52.334;5.024;2022-08-19T08:03:23;101458.00;;;21.24;100.00
58955;BME280;45815;52.334;5.024;2022-08-19T08:06:08;101453.56;;;21.23;100.00
58955;BME280;45815;52.334;5.024;2022-08-19T08:08:52;101465.88;;;21.34;100.00
58955;BME280;45815;52.334;5.024;2022-08-19T08:11:54;101464.91;;;21.41;100.00
58955;BME280;45815;52.334;5.024;2022-08-19T08:14:26;101456.91;;;21.41;100.00
58955;BME280;45815;52.334;5.024;2022-08-19T08:16:52;101472.78;;;21.50;100.00
58955;BME280;45815;52.334;5.024;2022-08-19T08:19:20;101471.78;;;21.56;100.00
58955;BME280;45815;52.334;5.024;2022-08-19T08:21:46;101467.31;;;21.56;100.00
58955;BME280;45815;52.334;5.024;2022-08-19T08:24:11;101466.44;;;21.56;100.00
58955;BME280;45815;52.334;5.024;2022-08-19T08:26:37;101472.63;;;21.59;100.00
58955;BME280;45815;52.334;5.024;2022-08-19T08:29:03;101479.63;;;21.66;100.00
58955;BME280;45815;52.334;5.024;2022-08-19T08:31:28;101474.22;;;21.69;100.00
58955;BME280;45815;52.334;5.024;2022-08-19T08:33:54;101472.16;;;21.87;100.00
58955;BME280;45815;52.334;5.024;2022-08-19T08:36:19;101478.25;;;21.93;100.00
58955;BME280;45815;52.334;5.024;2022-08-19T08:38:45;101469.97;;;22.07;100.00
58955;BME280;45815;52.334;5.024;2022-08-19T08:41:49;101459.28;;;22.07;100.00
58955;BME280;45815;52.334;5.024;2022-08-19T08:44:27;101464.28;;;22.29;100.00
58955;BME280;45815;52.334;5.024;2022-08-19T08:47:00;101461.84;;;22.60;100.00
58955;BME280;45815;52.334;5.024;2022-08-19T08:49:39;101454.84;;;22.95;100.00
58955;BME280;45815;52.334;5.024;2022-08-19T08:52:18;101455.03;;;23.26;100.00
58955;BME280;45815;52.334;5.024;2022-08-19T08:54:46;101455.13;;;23.59;100.00
58955;BME280;45815;52.334;5.024;2022-08-19T08:57:17;101446.00;;;23.68;100.00
58955;BME280;45815;52.334;5.024;2022-08-19T08:59:47;101444.47;;;23.92;100.00
58955;BME280;45815;52.334;5.024;2022-08-19T09:02:17;101439.00;;;23.96;100.00
58955;BME280;45815;52.334;5.024;2022-08-19T09:04:42;101443.72;;;24.19;100.00
58955;BME280;45815;52.334;5.024;2022-08-19T09:09:45;101437.97;;;24.33;100.00
58955;BME280;45815;52.334;5.024;2022-08-19T09:15:00;101425.69;;;24.25;100.00
58955;BME280;45815;52.334;5.024;2022-08-19T09:17:28;101435.78;;;24.49;100.00
58955;BME280;45815;52.334;5.024;2022-08-19T09:20:20;101420.28;;;24.87;100.00
58955;BME280;45815;52.334;5.024;2022-08-19T09:22:47;101426.88;;;25.05;100.00
58955;BME280;45815;52.334;5.024;2022-08-19T09:25:17;101424.41;;;25.27;100.00
58955;BME280;45815;52.334;5.024;2022-08-19T09:27:45;101428.81;;;25.30;100.00
58955;BME280;45815;52.334;5.024;2022-08-19T09:30:17;101431.34;;;25.34;100.00
58955;BME280;45815;52.334;5.024;2022-08-19T09:32:44;101429.03;;;25.50;100.00
58955;BME280;45815;52.334;5.024;2022-08-19T09:35:11;101431.72;;;25.75;100.00
58955;BME280;45815;52.334;5.024;2022-08-19T09:37:37;101425.97;;;25.61;100.00
58955;BME280;45815;52.334;5.024;2022-08-19T09:40:04;101442.41;;;25.52;100.00
58955;BME280;45815;52.334;5.024;2022-08-19T09:42:29;101438.56;;;25.32;100.00
58955;BME280;45815;52.334;5.024;2022-08-19T09:44:55;101431.84;;;25.19;100.00
58955;BME280;45815;52.334;5.024;2022-08-19T09:47:20;101434.00;;;25.36;100.00
58955;BME280;45815;52.334;5.024;2022-08-19T09:49:45;101434.16;;;25.31;100.00
58955;BME280;45815;52.334;5.024;2022-08-19T09:52:16;101436.97;;;25.53;100.00
58955;BME280;45815;52.334;5.024;2022-08-19T09:54:42;101436.91;;;25.81;100.00
58955;BME280;45815;52.334;5.024;2022-08-19T09:57:07;101434.97;;;26.11;100.00
58955;BME280;45815;52.334;5.024;2022-08-19T09:59:33;101431.31;;;26.38;100.00
58955;BME280;45815;52.334;5.024;2022-08-19T10:01:58;101422.44;;;26.59;100.00
58955;BME280;45815;52.334;5.024;2022-08-19T10:04:24;101430.25;;;26.42;100.00
58955;BME280;45815;52.334;5.024;2022-08-19T10:07:10;101422.00;;;26.23;100.00
58955;BME280;45815;52.334;5.024;2022-08-19T10:09:36;101436.63;;;26.16;100.00
58955;BME280;45815;52.334;5.024;2022-08-19T10:12:03;101431.41;;;26.11;100.00
58955;BME280;45815;52.334;5.024;2022-08-19T10:14:30;101433.75;;;25.95;100.00
58955;BME280;45815;52.334;5.024;2022-08-19T10:16:55;101435.84;;;25.87;100.00
58955;BME280;45815;52.334;5.024;2022-08-19T10:19:21;101431.03;;;25.70;100.00
58955;BME280;45815;52.334;5.024;2022-08-19T10:21:47;101428.34;;;25.70;100.00
58955;BME280;45815;52.334;5.024;2022-08-19T10:24:12;101419.66;;;25.62;100.00
58955;BME280;45815;52.334;5.024;2022-08-19T10:26:40;101423.50;;;25.55;100.00
58955;BME280;45815;52.334;5.024;2022-08-19T10:29:07;101421.47;;;25.35;100.00
58955;BME280;45815;52.334;5.024;2022-08-19T10:31:33;101423.44;;;25.30;100.00
58955;BME280;45815;52.334;5.024;2022-08-19T10:33:59;101435.72;;;25.37;100.00
58955;BME280;45815;52.334;5.024;2022-08-19T10:36:32;101432.31;;;25.32;100.00
58955;BME280;45815;52.334;5.024;2022-08-19T10:39:00;101433.63;;;25.20;100.00
58955;BME280;45815;52.334;5.024;2022-08-19T10:41:33;101437.28;;;25.16;100.00
58955;BME280;45815;52.334;5.024;2022-08-19T10:44:01;101434.63;;;25.14;100.00
58955;BME280;45815;52.334;5.024;2022-08-19T10:46:28;101431.91;;;25.16;100.00
58955;BME280;45815;52.334;5.024;2022-08-19T10:48:58;101444.47;;;25.15;100.00
58955;BME280;45815;52.334;5.024;2022-08-19T10:51:23;101439.91;;;25.19;100.00
58955;BME280;45815;52.334;5.024;2022-08-19T10:54:07;101440.72;;;25.21;100.00
58955;BME280;45815;52.334;5.024;2022-08-19T10:56:33;101438.75;;;25.26;100.00
58955;BME280;45815;52.334;5.024;2022-08-19T10:59:26;101438.97;;;25.20;100.00
58955;BME280;45815;52.334;5.024;2022-08-19T11:01:54;101426.38;;;25.22;100.00
58955;BME280;45815;52.334;5.024;2022-08-19T11:04:23;101426.28;;;25.25;100.00
58955;BME280;45815;52.334;5.024;2022-08-19T11:06:49;101430.09;;;25.18;100.00
58955;BME280;45815;52.334;5.024;2022-08-19T11:09:17;101431.94;;;25.14;100.00
58955;BME280;45815;52.334;5.024;2022-08-19T11:11:43;101441.59;;;25.21;100.00
58955;BME280;45815;52.334;5.024;2022-08-19T11:14:11;101444.97;;;25.28;100.00
58955;BME280;45815;52.334;5.024;2022-08-19T11:16:37;101436.97;;;25.26;100.00
58955;BME280;45815;52.334;5.024;2022-08-19T11:19:04;101440.16;;;25.38;100.00
58955;BME280;45815;52.334;5.024;2022-08-19T11:21:36;101443.34;;;25.51;100.00
58955;BME280;45815;52.334;5.024;2022-08-19T11:24:11;101435.31;;;25.49;100.00
58955;BME280;45815;52.334;5.024;2022-08-19T11:26:39;101438.88;;;25.49;100.00
58955;BME280;45815;52.334;5.024;2022-08-19T11:29:06;101439.72;;;25.52;100.00
58955;BME280;45815;52.334;5.024;2022-08-19T11:31:37;101440.75;;;25.47;100.00
58955;BME280;45815;52.334;5.024;2022-08-19T11:34:06;101438.88;;;25.49;100.00
58955;BME280;45815;52.334;5.024;2022-08-19T11:36:33;101425.03;;;25.62;100.00
58955;BME280;45815;52.334;5.024;2022-08-19T11:38:59;101413.22;;;25.66;100.00
58955;BME280;45815;52.334;5.024;2022-08-19T11:41:25;101430.69;;;25.79;100.00
58955;BME280;45815;52.334;5.024;2022-08-19T11:43:52;101429.50;;;25.89;100.00
58955;BME280;45815;52.334;5.024;2022-08-19T11:46:19;101428.38;;;25.95;100.00
58955;BME280;45815;52.334;5.024;2022-08-19T11:48:45;101422.34;;;25.88;100.00
58955;BME280;45815;52.334;5.024;2022-08-19T11:51:16;101432.91;;;25.95;100.00
58955;BME280;45815;52.334;5.024;2022-08-19T11:53:43;101427.84;;;25.84;100.00
58955;BME280;45815;52.334;5.024;2022-08-19T11:56:09;101425.72;;;25.68;100.00
58955;BME280;45815;52.334;5.024;2022-08-19T11:58:35;101428.13;;;25.76;100.00
58955;BME280;45815;52.334;5.024;2022-08-19T12:01:01;101429.34;;;25.66;100.00
58955;BME280;45815;52.334;5.024;2022-08-19T12:03:27;101428.97;;;25.52;100.00
58955;BME280;45815;52.334;5.024;2022-08-19T12:05:53;101439.63;;;25.55;100.00
58955;BME280;45815;52.334;5.024;2022-08-19T12:08:18;101435.88;;;25.59;100.00
58955;BME280;45815;52.334;5.024;2022-08-19T12:10:44;101428.50;;;25.65;100.00
58955;BME280;45815;52.334;5.024;2022-08-19T12:13:12;101442.31;;;25.80;100.00
58955;BME280;45815;52.334;5.024;2022-08-19T12:15:45;101433.19;;;25.85;100.00
58955;BME280;45815;52.334;5.024;2022-08-19T12:18:11;101437.03;;;25.78;100.00
58955;BME280;45815;52.334;5.024;2022-08-19T12:20:40;101436.78;;;25.84;100.00
58955;BME280;45815;52.334;5.024;2022-08-19T12:23:07;101416.22;;;25.83;100.00
58955;BME280;45815;52.334;5.024;2022-08-19T12:25:35;101435.59;;;25.95;100.00
58955;BME280;45815;52.334;5.024;2022-08-19T12:28:02;101431.25;;;25.90;100.00
58955;BME280;45815;52.334;5.024;2022-08-19T12:30:27;101428.94;;;26.05;100.00
58955;BME280;45815;52.334;5.024;2022-08-19T12:32:53;101433.16;;;26.12;100.00
58955;BME280;45815;52.334;5.024;2022-08-19T12:35:19;101433.84;;;26.17;100.00
58955;BME280;45815;52.334;5.024;2022-08-19T12:37:48;101427.94;;;26.07;100.00
58955;BME280;45815;52.334;5.024;2022-08-19T12:40:15;101427.56;;;25.93;100.00
58955;BME280;45815;52.334;5.024;2022-08-19T12:42:41;101424.41;;;25.80;100.00
58955;BME280;45815;52.334;5.024;2022-08-19T12:45:09;101431.38;;;25.86;100.00
58955;BME280;45815;52.334;5.024;2022-08-19T12:47:35;101425.28;;;25.81;100.00
58955;BME280;45815;52.334;5.024;2022-08-19T12:50:01;101428.66;;;25.87;100.00
58955;BME280;45815;52.334;5.024;2022-08-19T12:52:27;101428.66;;;25.87;100.00
58955;BME280;45815;52.334;5.024;2022-08-19T12:54:55;101414.59;;;26.29;100.00